createdAt,value
2023-05-08T20:42:11.879Z,994.137
2023-05-08T20:44:50.364Z,994.114
2023-05-08T20:46:49.713Z,994.082
2023-05-08T20:48:50.099Z,994.052
2023-05-08T20:50:50.343Z,994.110
2023-05-08T20:52:50.660Z,994.053
2023-05-08T20:54:49.966Z,994.053
2023-05-08T20:56:50.291Z,993.959
2023-05-08T21:06:41.099Z,993.917
2023-05-08T21:10:49.814Z,993.926
2023-05-08T21:12:49.498Z,993.922
2023-05-08T21:14:50.049Z,993.835
2023-05-08T21:16:49.781Z,993.862
2023-05-08T21:18:49.442Z,993.858
2023-05-08T21:20:50.408Z,993.760
2023-05-08T21:22:50.089Z,993.837
2023-05-08T21:24:49.692Z,993.794
2023-05-08T21:26:50.282Z,993.805
2023-05-08T21:28:49.840Z,993.785
2023-05-08T21:30:49.383Z,993.752
2023-05-08T21:32:50.059Z,993.730
2023-05-08T21:34:49.703Z,993.666
2023-05-08T21:36:50.298Z,993.717
2023-05-08T21:38:49.873Z,993.642
2023-05-08T21:40:49.438Z,993.598
2023-05-08T21:42:50.055Z,993.658
2023-05-08T21:44:49.629Z,993.544
2023-05-08T21:46:50.208Z,993.569
2023-05-08T21:48:49.841Z,993.549
2023-05-08T21:50:49.461Z,993.535
2023-05-08T21:52:50.025Z,993.554
2023-05-08T21:54:49.612Z,993.512
2023-05-08T21:56:50.203Z,993.505
2023-05-08T21:58:49.790Z,993.472
2023-05-08T22:00:49.359Z,993.521
2023-05-08T22:02:50.067Z,993.442
2023-05-08T22:04:49.761Z,993.444
2023-05-08T22:06:49.422Z,993.469
2023-05-08T22:08:49.953Z,993.409
2023-05-08T22:10:49.574Z,993.460
2023-05-08T22:12:50.205Z,993.529
2023-05-08T22:14:49.847Z,993.460
2023-05-08T22:16:49.471Z,993.441
2023-05-08T22:18:50.047Z,993.441
2023-05-08T22:22:50.005Z,993.399
2023-05-08T22:24:49.623Z,993.573
2023-05-08T22:26:50.210Z,993.529
2023-05-08T22:28:49.836Z,993.561
2023-05-08T22:30:49.448Z,993.623
2023-05-08T22:32:50.068Z,993.558
2023-05-08T22:34:49.753Z,993.561
2023-05-08T22:36:49.408Z,993.449
2023-05-08T22:38:50.058Z,993.479
2023-05-08T22:40:49.682Z,993.380
2023-05-08T22:42:50.264Z,993.357
2023-05-08T22:44:49.848Z,993.431
2023-05-08T22:46:49.503Z,993.390
2023-05-08T22:48:50.153Z,993.357
2023-05-08T22:50:49.740Z,993.503
2023-05-08T22:52:49.378Z,993.502
2023-05-08T22:54:50.005Z,993.594
2023-05-08T22:56:49.600Z,993.449
2023-05-08T22:58:50.149Z,993.395
2023-05-08T23:00:49.760Z,993.436
2023-05-08T23:02:49.454Z,993.334
2023-05-08T23:04:50.196Z,993.419
2023-05-08T23:06:49.923Z,993.356
2023-05-08T23:08:49.456Z,993.356
2023-05-08T23:10:50.016Z,993.364
2023-05-08T23:12:49.623Z,993.334
2023-05-08T23:14:50.181Z,993.350
2023-05-08T23:16:49.868Z,993.293
2023-05-08T23:18:49.506Z,993.302
2023-05-08T23:20:50.105Z,993.223
2023-05-08T23:22:49.711Z,993.270
2023-05-08T23:24:50.271Z,993.298
2023-05-08T23:26:49.920Z,993.252
2023-05-08T23:28:49.456Z,993.266
2023-05-08T23:30:50.047Z,993.231
2023-05-08T23:32:49.675Z,993.159
2023-05-08T23:34:50.339Z,993.179
2023-05-08T23:36:49.917Z,993.154
2023-05-08T23:38:49.501Z,993.160
2023-05-08T23:40:50.196Z,993.171
2023-05-08T23:42:49.786Z,993.171
2023-05-08T23:44:49.390Z,993.035
2023-05-08T23:46:50.049Z,993.035
2023-05-08T23:48:49.766Z,993.040
2023-05-08T23:50:50.333Z,993.072
2023-05-08T23:52:49.917Z,993.020
2023-05-08T23:54:49.727Z,993.015
2023-05-08T23:56:49.365Z,993.074
2023-05-08T23:58:49.916Z,992.996
